Huaco, Argentina
Current Conditions -  °F | °C
As of 10:00 PM on Tuesday 21 Oct 2014 (Local Time) from SCSE Reporting Station
Scattered Clouds Scattered Clouds  
Wind Chill: 55°   Ceiling: Unl
Heat Index: 55°   Visibility: 6mi
Dew Point: 54°   Wind: 5mph
Humidity: 94%   Direction: 300°WNW
Pressure: 30"   Gusts: NA
Location:  30.15°S, 68.52°W
Report Text: SCSE 220100Z 30004KT 9999 SCT014 13/12 Q1016
Loading
Personal Weather Stations






























Interactive Weather Map
Tropical Storm Tracking
New forecast layout! Learn more

10-Day Weather Forecast

Advertisements
Track Severe Weather on mobile